Timaru Star — VRAA7 — position and weather

sailwx.info

Track history (hours):
 
Tides and Currents Weather Stations Pressure Air Temp Water Temp Dewpoint Dewpoint Depression Visibility Wind Speed Wind Dir Waves Ship Positions

Timaru Star

Last reported at 2018-Jun-24 07:31 UTC. Time now 2018-Jun-24 18:51 UTC.
Position S 23°56' W 046°19'.

Length 175 m; draft 6.2 m.

Type: Cargo ship. MMSI: 367002208.

Date/timePositionNaut miles runAvg speedWind from/ knotsBaromVisibWave heightAir tempDewpointWater temp
2018-Jun-24 07:31S 23°56' W 046°19'0 4.3
2018-Jun-24 07:27S 23°57' W 046°19'0 0.9
2018-Jun-24 07:00S 23°57' W 046°19'0 0.0
2018-Jun-24 04:30S 23°57' W 046°19'0 0.0
2018-Jun-22 00:32S 23°57' W 046°19'0 0.0
2018-Jun-22 00:30S 23°57' W 046°19'1 1.4
2018-Jun-22 00:01S 23°58' W 046°18'0 0.0
2018-Jun-21 22:10S 23°58' W 046°18'0 0.0
2018-Jun-21 21:55S 23°58' W 046°18'0 0.0
2018-Jun-21 18:49S 23°58' W 046°18'0 0.0
2018-Jun-21 16:31S 23°58' W 046°18'0 0.0
2018-Jun-21 13:13S 23°58' W 046°18'0 0.0
2018-Jun-21 12:55S 23°58' W 046°18'  
2018-Jun-18 19:26S 23°58' W 046°18'0 0.0
2018-Jun-18 09:02S 23°58' W 046°18'0 0.0
2018-Jun-18 08:50S 23°58' W 046°18'0 0.0
2018-Jun-18 06:56S 23°58' W 046°18'0 0.0
2018-Jun-17 19:38S 23°58' W 046°18'0 0.0
2018-Jun-17 19:08S 23°58' W 046°18'0 0.0
2018-Jun-17 17:59S 23°58' W 046°18'0 0.0
2018-Jun-17 10:41S 23°58' W 046°18'2 2.7
2018-Jun-17 09:59S 23°60' W 046°18'3 6.8
2018-Jun-17 09:31S 24°02' W 046°21'4 7.1
2018-Jun-17 09:00S 24°05' W 046°22'4 7.7
2018-Jun-17 08:30S 24°09' W 046°22'4 7.8
2018-Jun-17 08:00S 24°11' W 046°19'4 8.6
2018-Jun-17 07:29S 24°12' W 046°14'4 4.9
2018-Jun-17 06:44S 24°12' W 046°10'0 0.0
2018-Jun-17 06:29S 24°12' W 046°10'0 0.0
2018-Jun-17 05:59S 24°12' W 046°10'0 0.0
2018-Jun-17 05:23S 24°12' W 046°10'0 0.0
2018-Jun-17 04:59S 24°12' W 046°10'0 0.0
2018-Jun-17 04:29S 24°12' W 046°10'0 0.0
2018-Jun-17 03:59S 24°12' W 046°10'0 0.0
2018-Jun-17 03:29S 24°12' W 046°10'0 0.0
2018-Jun-17 02:59S 24°12' W 046°10'0 0.0
2018-Jun-17 02:26S 24°12' W 046°10'0 0.0
2018-Jun-17 01:59S 24°12' W 046°10'0 0.0
2018-Jun-17 01:29S 24°12' W 046°10'0 0.0
2018-Jun-17 00:59S 24°12' W 046°10'0 0.0
2018-Jun-17 00:23S 24°12' W 046°10'0 0.0
2018-Jun-16 23:53S 24°12' W 046°10'0 0.0
2018-Jun-16 23:29S 24°12' W 046°10'0 0.0
2018-Jun-16 22:59S 24°12' W 046°10'0 0.0
2018-Jun-16 22:17S 24°12' W 046°10'0 0.0
2018-Jun-16 21:59S 24°12' W 046°10'0 0.0
2018-Jun-16 21:17S 24°12' W 046°10'0 0.0
2018-Jun-16 20:59S 24°12' W 046°10'0 0.0
2018-Jun-16 20:11S 24°12' W 046°10'0 0.1
2018-Jun-16 19:59S 24°12' W 046°10'0 0.0
2018-Jun-16 19:23S 24°12' W 046°10'0 0.1
2018-Jun-16 18:53S 24°12' W 046°10'0 0.1
2018-Jun-16 18:29S 24°12' W 046°10'0 0.0
2018-Jun-16 17:59S 24°12' W 046°10'0 0.0
2018-Jun-16 17:29S 24°12' W 046°10'0 0.0
2018-Jun-16 16:59S 24°12' W 046°10'0 0.0
2018-Jun-16 16:29S 24°12' W 046°10'0 0.0
2018-Jun-16 15:53S 24°12' W 046°10'0 0.0
2018-Jun-16 15:29S 24°12' W 046°10'0 0.0
2018-Jun-16 14:59S 24°12' W 046°10'0 0.0
2018-Jun-16 14:29S 24°12' W 046°10'0 0.0
2018-Jun-16 13:59S 24°12' W 046°10'0 0.0
2018-Jun-16 13:23S 24°12' W 046°10'0 0.0
2018-Jun-16 12:56S 24°12' W 046°10'0 0.0
2018-Jun-16 11:53S 24°12' W 046°10'0 0.0
2018-Jun-16 11:29S 24°12' W 046°10'0 0.0
2018-Jun-16 10:59S 24°12' W 046°10'0 0.0
2018-Jun-16 10:29S 24°12' W 046°10'0 0.0
2018-Jun-16 09:53S 24°12' W 046°10'0 0.0
2018-Jun-16 09:23S 24°12' W 046°10'0 0.0
2018-Jun-16 08:59S 24°12' W 046°10'0 0.0
2018-Jun-16 08:29S 24°12' W 046°10'0 0.0
2018-Jun-16 07:59S 24°12' W 046°10'0 0.0
2018-Jun-16 07:26S 24°12' W 046°10'0 0.0
2018-Jun-16 06:59S 24°12' W 046°10'0 0.0
2018-Jun-16 06:29S 24°12' W 046°10'0 0.0
2018-Jun-16 05:56S 24°12' W 046°10'0 0.0
2018-Jun-16 05:29S 24°12' W 046°10'0 0.0
2018-Jun-16 04:59S 24°12' W 046°10'0 0.0
2018-Jun-16 04:29S 24°12' W 046°10'0 0.0
2018-Jun-16 03:59S 24°12' W 046°10'0 0.0
2018-Jun-16 03:29S 24°12' W 046°10'0 0.0
2018-Jun-16 02:59S 24°12' W 046°10'0 0.0
2018-Jun-16 02:29S 24°12' W 046°10'0 0.0
2018-Jun-16 01:59S 24°12' W 046°10'0 0.0
2018-Jun-16 01:02S 24°12' W 046°10'0 0.1
2018-Jun-16 00:59S 24°12' W 046°10'0 0.0
2018-Jun-16 00:29S 24°12' W 046°10'0 0.0
2018-Jun-15 22:47S 24°12' W 046°10'0 0.0
2018-Jun-15 22:29S 24°12' W 046°10'0 0.0
2018-Jun-15 21:59S 24°12' W 046°10'0 0.0
2018-Jun-15 21:17S 24°12' W 046°10'0 0.0
2018-Jun-15 20:56S 24°12' W 046°10'0 0.0
2018-Jun-15 20:29S 24°12' W 046°10'0 0.0
2018-Jun-15 19:50S 24°12' W 046°10'0 0.0
2018-Jun-15 19:29S 24°12' W 046°10'0 0.0
2018-Jun-15 18:59S 24°12' W 046°10'0 0.0
2018-Jun-15 18:29S 24°12' W 046°10'0 0.0
2018-Jun-15 17:47S 24°12' W 046°10'0 0.0
2018-Jun-15 17:26S 24°12' W 046°10'0 0.0
2018-Jun-15 16:59S 24°12' W 046°10'0 0.0
2018-Jun-15 16:29S 24°12' W 046°10'0 0.0
2018-Jun-15 15:53S 24°12' W 046°10'0 0.0
2018-Jun-15 15:29S 24°12' W 046°10'0 0.0
2018-Jun-15 14:59S 24°12' W 046°10'0 0.0
2018-Jun-15 14:29S 24°12' W 046°10'0 0.0
2018-Jun-15 13:59S 24°12' W 046°10'0 0.0
2018-Jun-15 13:29S 24°12' W 046°10'0 0.0
2018-Jun-15 12:47S 24°12' W 046°10'0 0.0
2018-Jun-15 12:29S 24°12' W 046°10'0 0.0
2018-Jun-15 11:50S 24°12' W 046°10'0 0.0
2018-Jun-15 11:29S 24°12' W 046°10'0 0.0
2018-Jun-15 10:59S 24°12' W 046°10'0 0.0
2018-Jun-15 10:29S 24°12' W 046°10'0 0.0
2018-Jun-15 09:59S 24°12' W 046°10'0 0.0
2018-Jun-15 09:29S 24°12' W 046°10'0 0.1
2018-Jun-15 08:59S 24°12' W 046°10'0 0.0
2018-Jun-15 08:23S 24°12' W 046°10'0 0.0
2018-Jun-15 07:59S 24°12' W 046°10'0 0.0
2018-Jun-15 07:05S 24°12' W 046°10'0 0.1
2018-Jun-15 06:59S 24°12' W 046°10'0 0.0
2018-Jun-15 06:23S 24°12' W 046°10'0 0.0
2018-Jun-15 05:59S 24°12' W 046°10'0 0.0
2018-Jun-15 05:23S 24°12' W 046°10'0 0.0
2018-Jun-15 04:59S 24°12' W 046°10'0 0.0
2018-Jun-15 04:29S 24°12' W 046°10'0 0.0
2018-Jun-15 03:53S 24°12' W 046°10'0 0.0
2018-Jun-15 03:29S 24°12' W 046°10'0 0.0
2018-Jun-15 02:59S 24°12' W 046°10'0 0.0
2018-Jun-15 02:23S 24°12' W 046°10'0 0.0
2018-Jun-15 01:41S 24°12' W 046°10'0 0.0
2018-Jun-15 01:20S 24°12' W 046°10'0 0.0
2018-Jun-15 00:59S 24°12' W 046°10'0 0.0
2018-Jun-15 00:23S 24°12' W 046°10'0 0.0
2018-Jun-14 23:59S 24°12' W 046°10'0 0.0
2018-Jun-14 22:29S 24°12' W 046°10'0 0.0
2018-Jun-14 21:23S 24°12' W 046°10'0 0.0
2018-Jun-14 20:59S 24°12' W 046°10'0 0.0
2018-Jun-14 20:29S 24°12' W 046°10'0 0.0
2018-Jun-14 19:53S 24°12' W 046°10'0 0.0
2018-Jun-14 19:29S 24°12' W 046°10'0 0.0
2018-Jun-14 18:59S 24°12' W 046°10'0 0.0
2018-Jun-14 18:29S 24°12' W 046°10'0 0.0
2018-Jun-14 17:59S 24°12' W 046°10'0 0.0
2018-Jun-14 17:29S 24°12' W 046°10'0 0.0
2018-Jun-14 16:53S 24°12' W 046°10'0 0.0
2018-Jun-14 16:20S 24°12' W 046°10'0 0.0
2018-Jun-14 15:56S 24°12' W 046°10'0 0.0
2018-Jun-14 15:29S 24°12' W 046°10'0 0.0
2018-Jun-14 14:53S 24°12' W 046°10'0 0.0
2018-Jun-14 14:29S 24°12' W 046°10'0 0.0
2018-Jun-14 13:59S 24°12' W 046°10'0 0.0
2018-Jun-14 13:29S 24°12' W 046°10'0 0.0
2018-Jun-14 12:59S 24°12' W 046°10'0 0.0
2018-Jun-14 12:29S 24°12' W 046°10'0 0.0
2018-Jun-14 11:59S 24°12' W 046°10'0 0.0
2018-Jun-14 11:29S 24°12' W 046°10'0 0.0
2018-Jun-14 10:47S 24°12' W 046°10'0 0.0
2018-Jun-14 10:29S 24°12' W 046°10'0 0.0
2018-Jun-14 09:59S 24°12' W 046°10'0 0.0
2018-Jun-14 09:29S 24°12' W 046°10'0 0.0
2018-Jun-14 08:47S 24°12' W 046°10'0 0.0
2018-Jun-14 08:11S 24°12' W 046°10'0 0.0
2018-Jun-14 07:56S 24°12' W 046°10'  
Track history (hours):
 
Tides and Currents Weather Stations Pressure Air Temp Water Temp Dewpoint Dewpoint Depression Visibility Wind Speed Wind Dir Waves Ship Positions

Timaru Star

Last reported at 2018-Jun-24 07:31 UTC. Time now 2018-Jun-24 18:51 UTC.
Position S 23°56' W 046°19'.

Length 175 m; draft 6.2 m.

Type: Cargo ship. MMSI: 367002208.

Date/timePositionNaut miles runAvg speedWind from/ knotsBaromVisibWave heightAir tempDewpointWater temp
2018-Jun-24 07:31S 23°56' W 046°19'0 4.3
2018-Jun-24 07:27S 23°57' W 046°19'0 0.9
2018-Jun-24 07:00S 23°57' W 046°19'0 0.0
2018-Jun-24 04:30S 23°57' W 046°19'0 0.0
2018-Jun-22 00:32S 23°57' W 046°19'0 0.0
2018-Jun-22 00:30S 23°57' W 046°19'1 1.4
2018-Jun-22 00:01S 23°58' W 046°18'0 0.0
2018-Jun-21 22:10S 23°58' W 046°18'0 0.0
2018-Jun-21 21:55S 23°58' W 046°18'0 0.0
2018-Jun-21 18:49S 23°58' W 046°18'0 0.0
2018-Jun-21 16:31S 23°58' W 046°18'0 0.0
2018-Jun-21 13:13S 23°58' W 046°18'0 0.0
2018-Jun-21 12:55S 23°58' W 046°18'  
2018-Jun-18 19:26S 23°58' W 046°18'0 0.0
2018-Jun-18 09:02S 23°58' W 046°18'0 0.0
2018-Jun-18 08:50S 23°58' W 046°18'0 0.0
2018-Jun-18 06:56S 23°58' W 046°18'0 0.0
2018-Jun-17 19:38S 23°58' W 046°18'0 0.0
2018-Jun-17 19:08S 23°58' W 046°18'0 0.0
2018-Jun-17 17:59S 23°58' W 046°18'0 0.0
2018-Jun-17 10:41S 23°58' W 046°18'2 2.7
2018-Jun-17 09:59S 23°60' W 046°18'3 6.8
2018-Jun-17 09:31S 24°02' W 046°21'4 7.1
2018-Jun-17 09:00S 24°05' W 046°22'4 7.7
2018-Jun-17 08:30S 24°09' W 046°22'4 7.8
2018-Jun-17 08:00S 24°11' W 046°19'4 8.6
2018-Jun-17 07:29S 24°12' W 046°14'4 4.9
2018-Jun-17 06:44S 24°12' W 046°10'0 0.0
2018-Jun-17 06:29S 24°12' W 046°10'0 0.0
2018-Jun-17 05:59S 24°12' W 046°10'0 0.0
2018-Jun-17 05:23S 24°12' W 046°10'0 0.0
2018-Jun-17 04:59S 24°12' W 046°10'0 0.0
2018-Jun-17 04:29S 24°12' W 046°10'0 0.0
2018-Jun-17 03:59S 24°12' W 046°10'0 0.0
2018-Jun-17 03:29S 24°12' W 046°10'0 0.0
2018-Jun-17 02:59S 24°12' W 046°10'0 0.0
2018-Jun-17 02:26S 24°12' W 046°10'0 0.0
2018-Jun-17 01:59S 24°12' W 046°10'0 0.0
2018-Jun-17 01:29S 24°12' W 046°10'0 0.0
2018-Jun-17 00:59S 24°12' W 046°10'0 0.0
2018-Jun-17 00:23S 24°12' W 046°10'0 0.0
2018-Jun-16 23:53S 24°12' W 046°10'0 0.0
2018-Jun-16 23:29S 24°12' W 046°10'0 0.0
2018-Jun-16 22:59S 24°12' W 046°10'0 0.0
2018-Jun-16 22:17S 24°12' W 046°10'0 0.0
2018-Jun-16 21:59S 24°12' W 046°10'0 0.0
2018-Jun-16 21:17S 24°12' W 046°10'0 0.0
2018-Jun-16 20:59S 24°12' W 046°10'0 0.0
2018-Jun-16 20:11S 24°12' W 046°10'0 0.1
2018-Jun-16 19:59S 24°12' W 046°10'0 0.0
2018-Jun-16 19:23S 24°12' W 046°10'0 0.1
2018-Jun-16 18:53S 24°12' W 046°10'0 0.1
2018-Jun-16 18:29S 24°12' W 046°10'0 0.0
2018-Jun-16 17:59S 24°12' W 046°10'0 0.0
2018-Jun-16 17:29S 24°12' W 046°10'0 0.0
2018-Jun-16 16:59S 24°12' W 046°10'0 0.0
2018-Jun-16 16:29S 24°12' W 046°10'0 0.0
2018-Jun-16 15:53S 24°12' W 046°10'0 0.0
2018-Jun-16 15:29S 24°12' W 046°10'0 0.0
2018-Jun-16 14:59S 24°12' W 046°10'0 0.0
2018-Jun-16 14:29S 24°12' W 046°10'0 0.0
2018-Jun-16 13:59S 24°12' W 046°10'0 0.0
2018-Jun-16 13:23S 24°12' W 046°10'0 0.0
2018-Jun-16 12:56S 24°12' W 046°10'0 0.0
2018-Jun-16 11:53S 24°12' W 046°10'0 0.0
2018-Jun-16 11:29S 24°12' W 046°10'0 0.0
2018-Jun-16 10:59S 24°12' W 046°10'0 0.0
2018-Jun-16 10:29S 24°12' W 046°10'0 0.0
2018-Jun-16 09:53S 24°12' W 046°10'0 0.0
2018-Jun-16 09:23S 24°12' W 046°10'0 0.0
2018-Jun-16 08:59S 24°12' W 046°10'0 0.0
2018-Jun-16 08:29S 24°12' W 046°10'0 0.0
2018-Jun-16 07:59S 24°12' W 046°10'0 0.0
2018-Jun-16 07:26S 24°12' W 046°10'0 0.0
2018-Jun-16 06:59S 24°12' W 046°10'0 0.0
2018-Jun-16 06:29S 24°12' W 046°10'0 0.0
2018-Jun-16 05:56S 24°12' W 046°10'0 0.0
2018-Jun-16 05:29S 24°12' W 046°10'0 0.0
2018-Jun-16 04:59S 24°12' W 046°10'0 0.0
2018-Jun-16 04:29S 24°12' W 046°10'0 0.0
2018-Jun-16 03:59S 24°12' W 046°10'0 0.0
2018-Jun-16 03:29S 24°12' W 046°10'0 0.0
2018-Jun-16 02:59S 24°12' W 046°10'0 0.0
2018-Jun-16 02:29S 24°12' W 046°10'0 0.0
2018-Jun-16 01:59S 24°12' W 046°10'0 0.0
2018-Jun-16 01:02S 24°12' W 046°10'0 0.1
2018-Jun-16 00:59S 24°12' W 046°10'0 0.0
2018-Jun-16 00:29S 24°12' W 046°10'0 0.0
2018-Jun-15 22:47S 24°12' W 046°10'0 0.0
2018-Jun-15 22:29S 24°12' W 046°10'0 0.0
2018-Jun-15 21:59S 24°12' W 046°10'0 0.0
2018-Jun-15 21:17S 24°12' W 046°10'0 0.0
2018-Jun-15 20:56S 24°12' W 046°10'0 0.0
2018-Jun-15 20:29S 24°12' W 046°10'0 0.0
2018-Jun-15 19:50S 24°12' W 046°10'0 0.0
2018-Jun-15 19:29S 24°12' W 046°10'0 0.0
2018-Jun-15 18:59S 24°12' W 046°10'0 0.0
2018-Jun-15 18:29S 24°12' W 046°10'0 0.0
2018-Jun-15 17:47S 24°12' W 046°10'0 0.0
2018-Jun-15 17:26S 24°12' W 046°10'0 0.0
2018-Jun-15 16:59S 24°12' W 046°10'0 0.0
2018-Jun-15 16:29S 24°12' W 046°10'0 0.0
2018-Jun-15 15:53S 24°12' W 046°10'0 0.0
2018-Jun-15 15:29S 24°12' W 046°10'0 0.0
2018-Jun-15 14:59S 24°12' W 046°10'0 0.0
2018-Jun-15 14:29S 24°12' W 046°10'0 0.0
2018-Jun-15 13:59S 24°12' W 046°10'0 0.0
2018-Jun-15 13:29S 24°12' W 046°10'0 0.0
2018-Jun-15 12:47S 24°12' W 046°10'0 0.0
2018-Jun-15 12:29S 24°12' W 046°10'0 0.0
2018-Jun-15 11:50S 24°12' W 046°10'0 0.0
2018-Jun-15 11:29S 24°12' W 046°10'0 0.0
2018-Jun-15 10:59S 24°12' W 046°10'0 0.0
2018-Jun-15 10:29S 24°12' W 046°10'0 0.0
2018-Jun-15 09:59S 24°12' W 046°10'0 0.0
2018-Jun-15 09:29S 24°12' W 046°10'0 0.1
2018-Jun-15 08:59S 24°12' W 046°10'0 0.0
2018-Jun-15 08:23S 24°12' W 046°10'0 0.0
2018-Jun-15 07:59S 24°12' W 046°10'0 0.0
2018-Jun-15 07:05S 24°12' W 046°10'0 0.1
2018-Jun-15 06:59S 24°12' W 046°10'0 0.0
2018-Jun-15 06:23S 24°12' W 046°10'0 0.0
2018-Jun-15 05:59S 24°12' W 046°10'0 0.0
2018-Jun-15 05:23S 24°12' W 046°10'0 0.0
2018-Jun-15 04:59S 24°12' W 046°10'0 0.0
2018-Jun-15 04:29S 24°12' W 046°10'0 0.0
2018-Jun-15 03:53S 24°12' W 046°10'0 0.0
2018-Jun-15 03:29S 24°12' W 046°10'0 0.0
2018-Jun-15 02:59S 24°12' W 046°10'0 0.0
2018-Jun-15 02:23S 24°12' W 046°10'0 0.0
2018-Jun-15 01:41S 24°12' W 046°10'0 0.0
2018-Jun-15 01:20S 24°12' W 046°10'0 0.0
2018-Jun-15 00:59S 24°12' W 046°10'0 0.0
2018-Jun-15 00:23S 24°12' W 046°10'0 0.0
2018-Jun-14 23:59S 24°12' W 046°10'0 0.0
2018-Jun-14 22:29S 24°12' W 046°10'0 0.0
2018-Jun-14 21:23S 24°12' W 046°10'0 0.0
2018-Jun-14 20:59S 24°12' W 046°10'0 0.0
2018-Jun-14 20:29S 24°12' W 046°10'0 0.0
2018-Jun-14 19:53S 24°12' W 046°10'0 0.0
2018-Jun-14 19:29S 24°12' W 046°10'0 0.0
2018-Jun-14 18:59S 24°12' W 046°10'0 0.0
2018-Jun-14 18:29S 24°12' W 046°10'0 0.0
2018-Jun-14 17:59S 24°12' W 046°10'0 0.0
2018-Jun-14 17:29S 24°12' W 046°10'0 0.0
2018-Jun-14 16:53S 24°12' W 046°10'0 0.0
2018-Jun-14 16:20S 24°12' W 046°10'0 0.0
2018-Jun-14 15:56S 24°12' W 046°10'0 0.0
2018-Jun-14 15:29S 24°12' W 046°10'0 0.0
2018-Jun-14 14:53S 24°12' W 046°10'0 0.0
2018-Jun-14 14:29S 24°12' W 046°10'0 0.0
2018-Jun-14 13:59S 24°12' W 046°10'0 0.0
2018-Jun-14 13:29S 24°12' W 046°10'0 0.0
2018-Jun-14 12:59S 24°12' W 046°10'0 0.0
2018-Jun-14 12:29S 24°12' W 046°10'0 0.0
2018-Jun-14 11:59S 24°12' W 046°10'0 0.0
2018-Jun-14 11:29S 24°12' W 046°10'0 0.0
2018-Jun-14 10:47S 24°12' W 046°10'0 0.0
2018-Jun-14 10:29S 24°12' W 046°10'0 0.0
2018-Jun-14 09:59S 24°12' W 046°10'0 0.0
2018-Jun-14 09:29S 24°12' W 046°10'0 0.0
2018-Jun-14 08:47S 24°12' W 046°10'0 0.0
2018-Jun-14 08:11S 24°12' W 046°10'0 0.0
2018-Jun-14 07:56S 24°12' W 046°10'  

Dump ship's entire track history